Time;durP1;ratioP1;P1;durP2;ratioP2;P2;SDS_P1;SDS_P2;PMS_P1;PMS_P2;Temp;Humidity;BMP_temperature;BMP_pressure;BME280_temperature;BME280_humidity;BME280_pressure;Samples;Min_cycle;Max_cycle;Signal;HPM_P1;HPM_P2
2022/04/02 00:02:23;;;;;;;18.05;16.50;;;2.10;99.90;;;;;;6004955;23;20233;-77
2022/04/02 00:04:51;;;;;;;17.70;16.05;;;2.10;99.90;;;;;;6004657;23;20770;-77
2022/04/02 00:07:19;;;;;;;16.83;15.30;;;2.10;99.90;;;;;;6002372;23;20690;-77
2022/04/02 00:09:46;;;;;;;16.20;14.80;;;2.00;99.90;;;;;;6005345;23;20193;-77
2022/04/02 00:12:13;;;;;;;17.85;16.33;;;2.00;99.90;;;;;;5993393;23;20195;-77
2022/04/02 00:14:39;;;;;;;18.42;16.77;;;2.10;99.90;;;;;;6002617;23;20289;-78
2022/04/02 00:17:07;;;;;;;18.58;16.90;;;2.10;99.90;;;;;;6003333;23;20545;-77
2022/04/02 00:19:35;;;;;;;18.48;16.77;;;2.10;99.90;;;;;;6003178;23;20296;-78
2022/04/02 00:22:02;;;;;;;17.23;15.63;;;2.20;99.90;;;;;;5992567;23;20195;-77
2022/04/02 00:24:30;;;;;;;16.35;14.85;;;2.20;99.90;;;;;;5993743;23;20331;-77
2022/04/02 00:26:57;;;;;;;16.65;15.23;;;2.20;99.90;;;;;;5996099;23;20195;-77
2022/04/02 00:29:24;;;;;;;18.17;16.38;;;2.20;99.90;;;;;;5985101;23;20191;-77
2022/04/02 00:31:51;;;;;;;16.73;15.32;;;2.30;99.90;;;;;;5983123;23;20280;-77
2022/04/02 00:34:18;;;;;;;20.17;18.48;;;2.30;99.90;;;;;;5989140;23;20247;-78
2022/04/02 00:36:45;;;;;;;16.50;15.00;;;2.30;99.90;;;;;;5996620;23;20192;-79
2022/04/02 00:39:12;;;;;;;16.60;15.10;;;2.30;99.90;;;;;;6001875;23;20228;-77
2022/04/02 00:41:41;;;;;;;16.30;14.90;;;2.30;99.90;;;;;;6004883;23;20199;-77
2022/04/02 00:44:10;;;;;;;16.90;15.38;;;2.30;99.90;;;;;;6003104;23;20229;-77
2022/04/02 00:46:40;;;;;;;16.92;15.23;;;2.40;99.90;;;;;;5980993;23;20191;-77
2022/04/02 00:49:07;;;;;;;16.58;14.98;;;2.40;99.90;;;;;;5988774;23;20195;-77
2022/04/02 00:51:34;;;;;;;16.92;15.43;;;2.40;99.90;;;;;;6004078;23;20245;-78
2022/04/02 00:54:02;;;;;;;16.83;15.38;;;2.40;99.90;;;;;;6004685;23;20217;-77
2022/04/02 00:56:29;;;;;;;18.00;16.15;;;2.40;99.90;;;;;;5997080;23;20190;-78
2022/04/02 00:58:57;;;;;;;17.42;15.82;;;2.40;99.90;;;;;;5985946;23;20226;-77
2022/04/02 01:01:24;;;;;;;16.60;15.20;;;2.40;99.90;;;;;;6002218;23;20200;-78
2022/04/02 01:03:51;;;;;;;17.95;16.35;;;2.50;99.90;;;;;;5999962;23;20734;-78
2022/04/02 01:06:18;;;;;;;15.98;14.57;;;2.40;99.90;;;;;;6000696;23;20234;-77
2022/04/02 01:08:46;;;;;;;17.55;15.90;;;2.50;99.90;;;;;;5998273;23;20277;-77
2022/04/02 01:11:13;;;;;;;16.58;15.07;;;2.50;99.90;;;;;;5992650;23;20196;-77
2022/04/02 01:13:40;;;;;;;16.77;15.18;;;2.40;99.90;;;;;;5987296;23;20291;-77
2022/04/02 01:16:09;;;;;;;15.68;14.30;;;2.40;99.90;;;;;;5983605;23;20198;-77
2022/04/02 01:18:35;;;;;;;16.00;14.65;;;2.40;99.90;;;;;;5989137;23;20261;-77
2022/04/02 01:21:02;;;;;;;16.30;14.80;;;2.40;99.90;;;;;;5995951;23;20197;-77
2022/04/02 01:23:31;;;;;;;15.90;14.50;;;2.40;99.90;;;;;;6000037;23;20227;-77
2022/04/02 01:25:59;;;;;;;15.50;14.05;;;2.40;99.90;;;;;;5996633;23;20574;-77
2022/04/02 01:28:33;;;;;;;14.00;12.85;;;2.40;99.90;;;;;;5988666;23;20191;-77
2022/04/02 01:31:03;;;;;;;14.93;13.45;;;2.30;99.90;;;;;;5994954;23;20265;-77
2022/04/02 01:33:31;;;;;;;15.82;14.38;;;2.30;99.90;;;;;;6002821;23;20622;-77
2022/04/02 01:35:59;;;;;;;15.30;14.02;;;2.30;99.90;;;;;;5996812;23;20199;-77
2022/04/02 01:38:26;;;;;;;16.02;14.63;;;2.20;99.90;;;;;;5987175;23;20728;-78
2022/04/02 01:40:54;;;;;;;16.80;15.40;;;2.20;99.90;;;;;;6003402;23;20185;-78
2022/04/02 01:43:21;;;;;;;14.20;12.90;;;2.30;99.90;;;;;;5998893;23;20277;-77
2022/04/02 01:45:48;;;;;;;14.77;13.45;;;2.30;99.90;;;;;;6003885;23;20237;-77
2022/04/02 01:48:15;;;;;;;14.75;13.48;;;2.30;99.90;;;;;;6006107;23;20186;-77
2022/04/02 01:50:43;;;;;;;14.55;13.15;;;2.30;99.90;;;;;;6001026;23;20200;-77
2022/04/02 01:53:10;;;;;;;14.55;13.25;;;2.30;99.90;;;;;;5996245;23;20746;-77
2022/04/02 01:55:37;;;;;;;13.23;12.02;;;2.40;99.90;;;;;;5998373;23;20191;-77
2022/04/02 01:58:06;;;;;;;13.82;12.55;;;2.40;99.90;;;;;;5995059;23;20729;-77
2022/04/02 02:00:33;;;;;;;14.20;12.90;;;2.40;99.90;;;;;;6002468;23;20241;-78
2022/04/02 02:03:00;;;;;;;14.73;13.48;;;2.40;99.90;;;;;;6004814;23;20216;-77
2022/04/02 02:05:27;;;;;;;12.90;11.80;;;2.30;99.90;;;;;;6000590;23;20213;-77
2022/04/02 02:07:54;;;;;;;13.90;12.55;;;2.30;99.90;;;;;;5996993;23;20272;-78
2022/04/02 02:10:22;;;;;;;13.35;12.25;;;2.30;99.90;;;;;;5987583;23;20203;-78
2022/04/02 02:12:48;;;;;;;13.00;11.90;;;2.30;99.90;;;;;;6004218;23;20282;-77
2022/04/02 02:15:17;;;;;;;12.65;11.55;;;2.30;99.90;;;;;;5988873;23;20274;-77
2022/04/02 02:17:45;;;;;;;12.88;11.70;;;2.30;99.90;;;;;;5988104;23;20721;-77
2022/04/02 02:20:12;;;;;;;12.50;11.40;;;2.30;99.90;;;;;;5980599;23;20716;-77
2022/04/02 02:22:40;;;;;;;12.95;11.85;;;2.30;99.90;;;;;;5999885;23;20195;-77
2022/04/02 02:25:08;;;;;;;13.18;12.07;;;2.30;99.90;;;;;;5997020;23;20195;-77
2022/04/02 02:27:37;;;;;;;12.15;11.05;;;2.30;99.90;;;;;;6004534;23;20716;-77
2022/04/02 02:30:06;;;;;;;11.95;10.95;;;2.30;99.90;;;;;;6005251;23;20584;-77
2022/04/02 02:32:36;;;;;;;13.48;12.27;;;2.30;99.90;;;;;;5999835;23;20196;-77
2022/04/02 02:37:49;;;;;;;11.98;11.02;;;2.40;99.90;;;;;;6003411;23;20197;-77
2022/04/02 02:40:16;;;;;;;11.88;10.77;;;2.40;99.90;;;;;;6000784;23;20284;-77
2022/04/02 02:42:43;;;;;;;12.15;10.98;;;2.40;99.90;;;;;;6003513;23;20250;-77
2022/04/02 02:45:10;;;;;;;11.77;10.82;;;2.40;99.90;;;;;;5997000;23;20223;-77
2022/04/02 02:47:39;;;;;;;10.93;9.93;;;2.50;99.90;;;;;;6003403;23;20195;-77
2022/04/02 02:50:07;;;;;;;11.55;10.35;;;2.40;99.90;;;;;;5990152;23;20231;-77
2022/04/02 02:52:34;;;;;;;10.30;9.40;;;2.40;99.90;;;;;;6002424;23;20192;-77
2022/04/02 02:55:01;;;;;;;11.10;10.10;;;2.40;99.90;;;;;;6004543;23;20222;-77
2022/04/02 02:57:28;;;;;;;11.05;10.10;;;2.40;99.90;;;;;;6003512;23;20190;-77
2022/04/02 02:59:55;;;;;;;10.00;9.20;;;2.30;99.90;;;;;;5999645;23;20229;-78
2022/04/02 03:02:22;;;;;;;10.07;9.18;;;2.40;99.90;;;;;;6005080;23;20195;-77
2022/04/02 03:04:51;;;;;;;11.23;10.13;;;2.30;99.90;;;;;;5999008;23;20251;-77
2022/04/02 03:07:18;;;;;;;10.63;9.60;;;2.30;99.90;;;;;;6000440;23;20222;-77
2022/04/02 03:09:45;;;;;;;10.30;9.25;;;2.30;99.90;;;;;;6005356;23;20276;-77
2022/04/02 03:12:12;;;;;;;9.15;8.38;;;2.30;99.90;;;;;;5989117;23;20190;-77
2022/04/02 03:14:39;;;;;;;10.40;9.40;;;2.30;99.90;;;;;;6003145;23;20297;-77
2022/04/02 03:17:06;;;;;;;10.00;9.20;;;2.30;99.90;;;;;;5981054;23;20187;-77
2022/04/02 03:19:33;;;;;;;9.95;9.15;;;2.20;99.90;;;;;;6002116;23;20265;-77
2022/04/02 03:22:01;;;;;;;11.43;9.27;;;2.20;99.90;;;;;;5991112;23;20194;-77
2022/04/02 03:24:29;;;;;;;12.68;9.00;;;2.20;99.90;;;;;;6006203;23;20207;-77
2022/04/02 03:26:56;;;;;;;10.05;9.07;;;2.20;99.90;;;;;;5983758;23;20207;-77
2022/04/02 03:29:23;;;;;;;8.70;7.90;;;2.10;99.90;;;;;;6001741;23;20199;-77
2022/04/02 03:31:50;;;;;;;9.77;8.43;;;2.10;99.90;;;;;;5993346;23;20206;-77
2022/04/02 03:34:16;;;;;;;9.63;8.57;;;2.10;99.90;;;;;;6003136;23;20687;-77
2022/04/02 03:36:44;;;;;;;10.70;9.48;;;2.20;99.90;;;;;;5995648;23;20225;-77
2022/04/02 03:39:13;;;;;;;8.55;7.85;;;2.20;99.90;;;;;;6004592;23;20193;-78
2022/04/02 03:41:40;;;;;;;11.07;10.05;;;2.20;99.90;;;;;;5995589;23;20254;-77
2022/04/02 03:44:07;;;;;;;11.30;8.80;;;2.20;99.90;;;;;;6001289;23;20211;-78
2022/04/02 03:49:18;;;;;;;10.45;9.45;;;2.20;99.90;;;;;;5989548;23;20245;-77
2022/04/02 03:51:45;;;;;;;10.75;9.75;;;2.20;99.90;;;;;;5981663;23;20195;-77
2022/04/02 03:54:13;;;;;;;10.57;9.68;;;2.20;99.90;;;;;;5998903;23;20237;-77
2022/04/02 03:56:40;;;;;;;12.00;10.80;;;2.20;99.90;;;;;;6003137;23;20185;-77
2022/04/02 03:59:10;;;;;;;11.40;10.30;;;2.20;99.90;;;;;;6005035;23;20722;-77
2022/04/02 04:01:37;;;;;;;11.10;10.10;;;2.20;99.90;;;;;;5984278;23;20191;-77
2022/04/02 04:04:04;;;;;;;10.88;9.85;;;2.20;99.90;;;;;;6000383;23;20328;-77
2022/04/02 04:06:31;;;;;;;12.00;11.00;;;2.20;99.90;;;;;;6003472;23;20229;-77
2022/04/02 04:08:59;;;;;;;11.20;10.20;;;2.20;99.90;;;;;;6005217;23;20190;-76
2022/04/02 04:11:27;;;;;;;11.30;10.23;;;2.20;99.90;;;;;;5989708;23;20258;-77
2022/04/02 04:13:55;;;;;;;12.10;11.10;;;2.10;99.90;;;;;;5993168;23;20215;-77
2022/04/02 04:16:22;;;;;;;11.90;10.90;;;2.00;99.90;;;;;;5995567;23;20273;-78
2022/04/02 04:18:49;;;;;;;12.30;11.30;;;2.00;99.90;;;;;;6000845;23;20282;-77
2022/04/02 04:21:16;;;;;;;12.52;11.23;;;2.00;99.90;;;;;;5998323;23;20254;-77
2022/04/02 04:23:43;;;;;;;12.90;11.55;;;2.00;99.90;;;;;;6005837;23;20571;-77
2022/04/02 04:26:11;;;;;;;12.10;11.10;;;2.00;99.90;;;;;;5997286;23;20249;-77
2022/04/02 04:28:40;;;;;;;12.65;11.60;;;2.00;99.90;;;;;;6005321;23;20218;-77
2022/04/02 04:31:07;;;;;;;12.35;11.35;;;1.90;99.90;;;;;;6003186;23;20613;-77
2022/04/02 04:33:35;;;;;;;12.23;11.25;;;1.90;99.90;;;;;;6002724;23;20565;-77
2022/04/02 04:36:03;;;;;;;12.98;11.77;;;1.90;99.90;;;;;;5999628;23;20265;-78
2022/04/02 04:38:31;;;;;;;13.65;12.43;;;1.90;99.90;;;;;;6005713;23;20187;-77
2022/04/02 04:40:58;;;;;;;13.75;12.35;;;1.80;99.90;;;;;;5995025;23;20742;-77
2022/04/02 04:43:25;;;;;;;13.02;11.70;;;1.80;99.90;;;;;;5988076;23;20219;-77
2022/04/02 04:45:53;;;;;;;13.35;12.15;;;1.70;99.90;;;;;;5993101;23;20214;-77
2022/04/02 04:48:20;;;;;;;12.43;11.25;;;1.70;99.90;;;;;;6001313;23;20646;-77
2022/04/02 04:50:48;;;;;;;12.30;11.20;;;1.70;99.90;;;;;;5989525;23;20233;-77
2022/04/02 04:53:14;;;;;;;12.90;11.70;;;1.80;99.90;;;;;;5995356;23;20298;-77
2022/04/02 04:55:41;;;;;;;11.82;10.75;;;1.70;99.90;;;;;;5998592;23;20195;-77
2022/04/02 04:58:09;;;;;;;13.20;11.93;;;1.70;99.90;;;;;;5997220;23;20201;-77
2022/04/02 05:00:36;;;;;;;12.77;11.68;;;1.70;99.90;;;;;;5977382;23;20253;-77
2022/04/02 05:03:05;;;;;;;12.48;11.48;;;1.70;99.90;;;;;;5996820;23;20757;-77
2022/04/02 05:05:33;;;;;;;12.20;11.15;;;1.70;99.90;;;;;;6003096;23;20868;-76
2022/04/02 05:08:00;;;;;;;12.93;11.63;;;1.60;99.90;;;;;;6004443;23;20190;-78
2022/04/02 05:10:28;;;;;;;12.15;11.15;;;1.60;99.90;;;;;;5993136;23;20678;-76
2022/04/02 05:12:55;;;;;;;12.85;11.85;;;1.60;99.90;;;;;;5992889;23;20214;-77
2022/04/02 05:15:22;;;;;;;12.32;11.23;;;1.60;99.90;;;;;;5994053;23;20205;-77
2022/04/02 05:17:49;;;;;;;12.75;11.75;;;1.60;99.90;;;;;;6005655;23;20276;-78
2022/04/02 05:20:18;;;;;;;14.25;13.15;;;1.60;99.90;;;;;;5995180;23;20269;-77
2022/04/02 05:22:46;;;;;;;15.40;14.13;;;1.70;99.90;;;;;;5985378;22;20200;-75
2022/04/02 05:25:14;;;;;;;12.35;11.35;;;1.70;99.90;;;;;;6029141;23;20199;-75
2022/04/02 05:27:41;;;;;;;12.43;11.43;;;1.70;99.90;;;;;;6033469;23;20187;-75
2022/04/02 05:30:11;;;;;;;13.48;12.10;;;1.70;99.90;;;;;;6031677;23;20190;-75
2022/04/02 05:32:38;;;;;;;12.45;11.30;;;1.70;99.90;;;;;;6005533;23;20214;-75
2022/04/02 05:35:06;;;;;;;11.40;10.50;;;1.60;99.90;;;;;;6021441;23;20545;-75
2022/04/02 05:37:34;;;;;;;13.27;12.05;;;1.60;99.90;;;;;;6030774;23;20194;-75
2022/04/02 05:40:01;;;;;;;12.40;11.38;;;1.60;99.90;;;;;;6031825;23;20224;-75
2022/04/02 05:42:28;;;;;;;11.23;10.32;;;1.50;99.90;;;;;;6031825;23;20216;-75
2022/04/02 05:44:56;;;;;;;12.18;11.07;;;1.60;99.90;;;;;;6031544;23;20646;-75
2022/04/02 05:47:23;;;;;;;12.38;11.27;;;1.60;99.90;;;;;;6033636;23;20220;-75
2022/04/02 05:49:51;;;;;;;10.45;9.55;;;1.70;99.90;;;;;;6032889;23;20190;-75
2022/04/02 05:52:18;;;;;;;11.15;10.07;;;1.70;99.90;;;;;;6032679;23;20222;-75
2022/04/02 05:54:46;;;;;;;10.48;9.60;;;1.70;99.90;;;;;;6031838;23;20228;-75
2022/04/02 05:57:13;;;;;;;10.02;9.18;;;1.70;99.90;;;;;;6031701;23;20205;-75
2022/04/02 05:59:41;;;;;;;9.40;8.60;;;1.70;99.90;;;;;;6032939;23;20208;-75
2022/04/02 06:02:08;;;;;;;9.73;8.93;;;1.70;99.90;;;;;;6032529;23;20194;-75
2022/04/02 06:04:36;;;;;;;10.00;9.20;;;1.70;99.90;;;;;;6031191;23;20274;-75
2022/04/02 06:07:02;;;;;;;11.00;10.10;;;1.80;99.90;;;;;;6028573;23;20853;-75
2022/04/02 06:09:30;;;;;;;10.18;9.27;;;1.70;99.90;;;;;;6030448;23;20227;-75
2022/04/02 06:11:58;;;;;;;9.35;8.65;;;1.80;99.90;;;;;;6030738;23;20226;-75
2022/04/02 06:14:25;;;;;;;9.50;8.70;;;1.80;99.90;;;;;;6032752;23;20303;-76
2022/04/02 06:16:52;;;;;;;8.90;8.10;;;1.80;99.90;;;;;;6030666;23;20189;-75
2022/04/02 06:19:19;;;;;;;9.43;8.63;;;1.80;99.90;;;;;;6030563;23;20190;-77
2022/04/02 06:21:46;;;;;;;9.00;8.30;;;1.90;99.90;;;;;;6027995;23;20229;-76
2022/04/02 06:24:13;;;;;;;9.65;8.75;;;1.90;99.90;;;;;;6032918;23;20201;-76
2022/04/02 06:26:40;;;;;;;9.00;8.10;;;2.00;99.90;;;;;;6028298;23;20248;-78
2022/04/02 06:29:08;;;;;;;9.02;8.25;;;2.00;99.90;;;;;;6035134;23;20646;-76
2022/04/02 06:31:35;;;;;;;9.38;8.57;;;2.10;99.90;;;;;;6021722;23;20288;-76
2022/04/02 06:34:03;;;;;;;8.98;8.20;;;2.10;99.90;;;;;;6032997;23;20368;-74
2022/04/02 06:36:30;;;;;;;8.82;8.10;;;2.10;99.90;;;;;;6031712;23;20199;-74
2022/04/02 06:38:57;;;;;;;7.65;7.03;;;2.20;99.90;;;;;;6028449;23;20182;-76
2022/04/02 06:41:24;;;;;;;7.60;7.00;;;2.20;99.90;;;;;;6028796;23;20242;-74
2022/04/02 06:43:52;;;;;;;8.23;7.43;;;2.30;99.90;;;;;;6029310;23;20237;-74
2022/04/02 06:46:20;;;;;;;8.70;8.00;;;2.30;99.90;;;;;;6029569;23;20669;-76
2022/04/02 06:48:47;;;;;;;8.05;7.45;;;2.40;99.90;;;;;;6032115;23;20190;-77
2022/04/02 06:51:16;;;;;;;8.68;7.93;;;2.40;99.90;;;;;;6028470;23;20197;-74
2022/04/02 06:53:43;;;;;;;8.25;7.55;;;2.50;99.90;;;;;;6030035;23;20225;-75
2022/04/02 06:56:10;;;;;;;7.95;7.25;;;2.50;99.90;;;;;;6029987;23;20200;-74
2022/04/02 06:58:39;;;;;;;8.20;7.55;;;2.50;99.90;;;;;;6030955;23;20193;-75
2022/04/02 07:01:06;;;;;;;7.75;7.15;;;2.50;99.90;;;;;;6028003;23;20225;-74
2022/04/02 07:03:35;;;;;;;8.85;8.05;;;2.50;99.90;;;;;;6031524;23;20261;-76
2022/04/02 07:06:02;;;;;;;8.73;7.93;;;2.60;99.90;;;;;;6031698;23;20279;-76
2022/04/02 07:08:29;;;;;;;8.80;8.10;;;2.60;99.90;;;;;;6031619;23;20201;-75
2022/04/02 07:10:56;;;;;;;8.65;7.85;;;2.60;99.90;;;;;;6030478;23;20200;-75
2022/04/02 07:13:24;;;;;;;8.82;8.13;;;2.60;99.90;;;;;;6030065;23;20242;-75
2022/04/02 07:15:51;;;;;;;9.63;8.68;;;2.60;99.90;;;;;;6030103;23;20190;-75
2022/04/02 07:18:20;;;;;;;8.65;7.95;;;2.70;99.90;;;;;;6031265;23;20200;-74
2022/04/02 07:20:51;;;;;;;8.93;8.13;;;2.70;99.90;;;;;;6030844;23;20669;-75
2022/04/02 07:23:19;;;;;;;9.07;8.27;;;2.70;99.90;;;;;;6028836;23;20222;-75
2022/04/02 07:25:48;;;;;;;8.82;8.13;;;2.60;99.90;;;;;;6019794;23;20205;-77
2022/04/02 07:28:15;;;;;;;8.18;7.47;;;2.50;99.90;;;;;;6025751;23;20185;-75
2022/04/02 07:30:42;;;;;;;7.07;6.38;;;2.40;99.90;;;;;;6026139;23;20600;-76
2022/04/02 07:33:09;;;;;;;7.70;6.95;;;2.60;99.90;;;;;;6020769;23;20570;-75
2022/04/02 07:35:41;;;;;;;7.72;7.10;;;2.80;99.90;;;;;;6022193;23;20637;-77
2022/04/02 07:38:13;;;;;;;7.43;6.82;;;3.00;99.90;;;;;;6011673;23;20268;-75
2022/04/02 07:40:50;;;;;;;7.63;7.03;;;3.10;99.90;;;;;;6019442;23;20208;-75
2022/04/02 07:43:29;;;;;;;6.93;6.35;;;3.20;99.90;;;;;;6021654;23;20329;-74
2022/04/02 07:46:04;;;;;;;7.45;6.85;;;3.20;99.90;;;;;;6023270;23;20186;-74
2022/04/02 07:48:32;;;;;;;6.82;6.22;;;3.30;99.90;;;;;;6030713;23;20193;-74
2022/04/02 07:51:04;;;;;;;6.53;6.03;;;3.30;99.90;;;;;;6026715;23;20236;-73
2022/04/02 07:53:39;;;;;;;8.13;7.38;;;3.10;99.90;;;;;;6025726;23;20209;-73
2022/04/02 07:56:08;;;;;;;7.85;7.03;;;2.90;99.90;;;;;;6026873;23;20644;-73
2022/04/02 07:58:40;;;;;;;8.10;7.45;;;2.70;99.90;;;;;;6025788;23;20182;-73
2022/04/02 08:01:08;;;;;;;7.85;7.18;;;2.50;99.90;;;;;;6020101;23;20661;-75
2022/04/02 08:03:37;;;;;;;8.00;7.20;;;2.60;99.90;;;;;;6026682;23;20209;-79
2022/04/02 08:06:05;;;;;;;8.85;8.05;;;2.50;99.90;;;;;;6025364;23;20213;-75
2022/04/02 08:08:35;;;;;;;9.65;8.82;;;2.40;99.90;;;;;;6030506;23;20186;-75
2022/04/02 08:11:03;;;;;;;10.27;9.48;;;2.50;99.90;;;;;;6030974;23;20359;-74
2022/04/02 08:13:31;;;;;;;8.82;8.02;;;2.60;99.90;;;;;;6026423;23;20207;-74
2022/04/02 08:15:59;;;;;;;8.43;7.70;;;2.70;99.90;;;;;;6030137;23;20653;-74
2022/04/02 08:18:27;;;;;;;8.27;7.57;;;2.80;99.90;;;;;;6031941;23;20244;-75
2022/04/02 08:20:55;;;;;;;8.32;7.53;;;2.90;99.90;;;;;;6030710;23;20210;-74
2022/04/02 08:23:22;;;;;;;7.88;7.20;;;3.00;99.90;;;;;;6021318;23;20582;-77
2022/04/02 08:26:00;;;;;;;8.18;7.47;;;3.00;99.90;;;;;;6026668;23;20325;-75
2022/04/02 08:28:33;;;;;;;7.95;7.35;;;3.10;99.90;;;;;;6032701;23;20187;-74
2022/04/02 08:31:04;;;;;;;7.40;6.80;;;3.10;99.90;;;;;;6025742;23;20608;-74
2022/04/02 08:33:45;;;;;;;8.30;7.68;;;3.20;99.90;;;;;;6030622;23;20678;-75
2022/04/02 08:36:22;;;;;;;8.40;7.68;;;3.20;99.90;;;;;;6033543;23;20189;-74
2022/04/02 08:38:56;;;;;;;8.30;7.60;;;3.10;99.90;;;;;;6031976;23;20665;-74
2022/04/02 08:42:02;;;;;;;8.13;7.53;;;2.90;99.90;;;;;;6033272;23;20228;-75
2022/04/02 08:45:01;;;;;;;8.55;7.85;;;2.90;99.90;;;;;;6005726;23;20676;-75
2022/04/02 08:48:14;;;;;;;10.13;9.30;;;2.80;99.90;;;;;;6010135;23;20224;-75
2022/04/02 08:50:46;;;;;;;10.98;8.85;;;2.80;99.90;;;;;;6033816;23;20185;-75
2022/04/02 08:53:19;;;;;;;9.13;8.40;;;2.80;99.90;;;;;;6031754;23;20289;-75
2022/04/02 08:55:49;;;;;;;9.77;8.88;;;2.90;99.90;;;;;;6032929;23;20178;-75
2022/04/02 08:58:26;;;;;;;9.45;8.63;;;3.00;99.90;;;;;;6029149;23;20189;-75
2022/04/02 09:01:07;;;;;;;8.98;8.27;;;3.00;99.90;;;;;;6013117;23;20191;-75
2022/04/02 09:04:08;;;;;;;9.80;8.90;;;3.00;99.90;;;;;;6016367;23;20241;-75
2022/04/02 09:07:15;;;;;;;9.38;8.57;;;3.10;99.90;;;;;;6027635;23;20195;-74
2022/04/02 09:10:21;;;;;;;8.95;8.25;;;3.20;99.90;;;;;;6024517;23;20283;-74
2022/04/02 09:13:15;;;;;;;8.68;7.88;;;3.40;99.90;;;;;;6026814;23;20575;-74
2022/04/02 09:15:57;;;;;;;9.10;8.30;;;3.20;99.90;;;;;;6020894;23;20209;-75
2022/04/02 09:18:37;;;;;;;9.20;8.30;;;3.10;99.90;;;;;;6032286;23;20190;-74
2022/04/02 09:21:25;;;;;;;10.70;9.70;;;2.90;99.90;;;;;;6024261;23;20210;-76
2022/04/02 09:24:05;;;;;;;10.55;9.65;;;3.00;99.90;;;;;;6026460;23;20190;-75
2022/04/02 09:27:17;;;;;;;10.32;9.52;;;3.00;99.90;;;;;;6023720;23;20193;-76
2022/04/02 09:30:03;;;;;;;9.80;8.90;;;3.00;99.90;;;;;;6001531;23;20253;-75
2022/04/02 09:33:03;;;;;;;9.57;8.73;;;3.00;99.90;;;;;;6023258;23;20216;-77
2022/04/02 09:35:50;;;;;;;14.93;13.82;;;3.00;99.90;;;;;;6017478;23;20692;-74
2022/04/02 09:38:38;;;;;;;9.85;8.85;;;3.00;99.90;;;;;;6027635;23;20198;-75
2022/04/02 09:41:18;;;;;;;11.63;10.55;;;2.90;99.90;;;;;;6026189;23;20266;-74
2022/04/02 09:43:56;;;;;;;10.50;9.55;;;2.90;99.90;;;;;;6030879;23;20179;-74
2022/04/02 09:46:37;;;;;;;10.40;9.50;;;2.90;99.90;;;;;;6026280;23;20198;-75
2022/04/02 09:49:16;;;;;;;10.52;9.60;;;2.90;99.90;;;;;;6024911;23;20217;-74
2022/04/02 09:51:53;;;;;;;9.68;8.80;;;2.90;99.90;;;;;;6029507;23;20714;-73
2022/04/02 09:54:29;;;;;;;10.48;9.05;;;2.90;99.90;;;;;;6029546;23;20185;-77
2022/04/02 09:57:06;;;;;;;9.95;9.05;;;2.90;99.90;;;;;;6027860;23;20270;-75
2022/04/02 09:59:46;;;;;;;9.70;8.90;;;2.90;99.90;;;;;;6025578;23;20271;-74
2022/04/02 10:02:26;;;;;;;9.75;8.77;;;3.10;99.90;;;;;;6028596;23;20229;-74
2022/04/02 10:04:58;;;;;;;9.68;8.88;;;3.10;99.90;;;;;;6024150;23;20583;-74
2022/04/02 10:07:33;;;;;;;9.50;8.70;;;3.30;99.90;;;;;;6029647;23;20209;-74
2022/04/02 10:10:02;;;;;;;9.18;8.40;;;3.30;99.90;;;;;;6031331;23;20182;-74
2022/04/02 10:12:29;;;;;;;9.05;8.30;;;3.30;99.90;;;;;;6025535;23;20662;-74
2022/04/02 10:14:58;;;;;;;9.25;8.45;;;3.20;99.90;;;;;;6027445;23;20253;-74
2022/04/02 10:17:28;;;;;;;9.10;8.40;;;3.10;99.90;;;;;;6031098;23;20269;-74
2022/04/02 10:19:57;;;;;;;9.40;8.65;;;3.00;99.90;;;;;;6028192;23;20198;-74
2022/04/02 10:22:37;;;;;;;9.45;8.75;;;3.00;99.90;;;;;;6024007;23;20244;-77
2022/04/02 10:25:09;;;;;;;10.55;9.65;;;3.00;99.90;;;;;;6029434;23;20262;-74
2022/04/02 10:27:38;;;;;;;9.98;9.18;;;3.10;99.90;;;;;;6027693;23;20186;-76
2022/04/02 10:30:07;;;;;;;14.60;12.65;;;3.10;99.90;;;;;;6027544;23;20589;-76
2022/04/02 10:32:55;;;;;;;9.82;9.02;;;3.20;99.90;;;;;;6028555;23;20230;-75
2022/04/02 10:35:24;;;;;;;10.63;9.68;;;3.10;99.90;;;;;;6031435;23;20187;-75
2022/04/02 10:38:06;;;;;;;9.82;8.93;;;3.20;99.90;;;;;;6027833;23;20208;-76
2022/04/02 10:40:36;;;;;;;12.55;11.23;;;3.30;99.90;;;;;;6022851;23;20637;-75
2022/04/02 10:43:06;;;;;;;9.45;8.52;;;3.40;99.90;;;;;;6025564;23;20578;-75
2022/04/02 10:45:37;;;;;;;9.82;9.02;;;3.40;99.90;;;;;;6026144;23;20187;-75
2022/04/02 10:48:10;;;;;;;10.23;9.43;;;3.40;99.90;;;;;;6029656;23;20559;-75
2022/04/02 10:50:38;;;;;;;10.25;9.45;;;3.30;99.90;;;;;;6030825;23;20187;-76
2022/04/02 10:53:10;;;;;;;9.07;8.27;;;3.30;99.90;;;;;;6007073;23;20263;-76
2022/04/02 10:55:42;;;;;;;9.07;8.38;;;3.20;99.90;;;;;;6018460;23;20219;-75
2022/04/02 10:58:12;;;;;;;9.77;8.98;;;3.20;99.90;;;;;;6028145;23;20192;-76
2022/04/02 11:00:45;;;;;;;9.70;8.90;;;3.20;99.90;;;;;;6027450;23;20652;-76
2022/04/02 11:03:20;;;;;;;9.73;8.93;;;3.30;99.90;;;;;;6026912;23;20273;-76
2022/04/02 11:05:47;;;;;;;9.80;9.05;;;3.30;99.90;;;;;;6019035;23;20648;-76
2022/04/02 11:08:16;;;;;;;10.45;9.65;;;3.30;99.90;;;;;;6029868;23;20238;-76
2022/04/02 11:10:48;;;;;;;9.73;8.82;;;3.50;99.90;;;;;;6029543;23;20199;-76
2022/04/02 11:13:29;;;;;;;9.77;8.88;;;3.60;99.90;;;;;;6029694;23;20913;-75
2022/04/02 11:15:56;;;;;;;9.85;8.95;;;3.80;99.90;;;;;;6027967;23;20188;-74
2022/04/02 11:18:25;;;;;;;11.60;10.60;;;3.80;99.90;;;;;;6020884;23;20184;-76
2022/04/02 11:21:03;;;;;;;11.90;10.77;;;3.90;99.90;;;;;;6030616;23;20192;-75
2022/04/02 11:23:46;;;;;;;9.20;8.40;;;4.20;99.90;;;;;;6018567;23;20225;-78
2022/04/02 11:26:15;;;;;;;9.40;8.70;;;4.30;99.90;;;;;;6026171;23;20202;-75
2022/04/02 11:28:45;;;;;;;11.23;8.32;;;4.20;99.90;;;;;;6017448;23;20271;-75
2022/04/02 11:31:13;;;;;;;9.57;8.75;;;4.10;99.90;;;;;;6028297;23;20185;-75
2022/04/02 11:33:52;;;;;;;9.15;8.45;;;4.10;99.90;;;;;;6030804;23;20213;-75
2022/04/02 11:36:24;;;;;;;10.30;9.60;;;4.10;99.90;;;;;;6030001;23;20560;-75
2022/04/02 11:38:57;;;;;;;9.60;8.82;;;4.10;99.90;;;;;;6021835;23;20192;-75
2022/04/02 11:41:31;;;;;;;9.65;8.75;;;4.10;99.90;;;;;;6027140;23;20230;-75
2022/04/02 11:44:07;;;;;;;10.73;9.88;;;4.10;99.90;;;;;;6023569;23;20215;-76
2022/04/02 11:46:53;;;;;;;10.60;9.70;;;3.90;99.90;;;;;;6029007;23;20220;-76
2022/04/02 11:49:26;;;;;;;10.60;9.70;;;3.80;99.90;;;;;;6026037;23;20271;-76
2022/04/02 11:52:01;;;;;;;10.27;9.40;;;3.70;99.90;;;;;;6025766;23;20263;-75
2022/04/02 11:54:30;;;;;;;14.98;11.68;;;3.60;99.90;;;;;;6031211;23;20210;-76
2022/04/02 11:57:08;;;;;;;12.45;11.45;;;3.60;99.90;;;;;;6027975;23;20185;-74
2022/04/02 11:59:35;;;;;;;11.43;10.32;;;3.70;99.90;;;;;;6032862;23;20183;-75
2022/04/02 12:02:04;;;;;;;11.38;10.48;;;3.70;99.90;;;;;;6029058;23;20208;-75
2022/04/02 12:04:32;;;;;;;13.40;12.35;;;3.60;99.90;;;;;;6031368;23;20211;-75
2022/04/02 12:07:06;;;;;;;11.88;10.88;;;3.60;99.90;;;;;;6031928;23;20287;-76
2022/04/02 12:09:50;;;;;;;10.80;9.80;;;3.70;99.90;;;;;;6033570;23;20672;-75
2022/04/02 12:12:23;;;;;;;11.52;10.50;;;3.70;99.90;;;;;;6030957;23;20193;-77
2022/04/02 12:14:51;;;;;;;10.88;9.88;;;3.80;99.90;;;;;;6029745;23;20192;-78
2022/04/02 12:17:18;;;;;;;10.05;9.25;;;3.80;99.90;;;;;;6024946;23;20187;-78
2022/04/02 12:19:46;;;;;;;11.93;10.93;;;3.90;99.90;;;;;;6033265;23;20521;-78
2022/04/02 12:22:21;;;;;;;11.10;10.20;;;4.00;99.90;;;;;;6033315;23;20236;-79
2022/04/02 12:24:53;;;;;;;10.30;9.45;;;4.10;99.90;;;;;;6025248;23;20197;-79
2022/04/02 12:27:21;;;;;;;10.80;9.90;;;4.10;99.90;;;;;;6027824;23;20517;-79
2022/04/02 12:29:49;;;;;;;10.60;9.80;;;4.20;99.90;;;;;;6031296;23;20268;-79
2022/04/02 12:32:28;;;;;;;10.65;9.85;;;4.20;99.90;;;;;;6031803;23;20189;-79
2022/04/02 12:35:01;;;;;;;10.82;9.93;;;4.10;99.90;;;;;;6032336;23;20270;-75
2022/04/02 12:37:30;;;;;;;11.45;10.45;;;4.00;99.90;;;;;;6028420;23;20189;-77
2022/04/02 12:40:14;;;;;;;11.70;10.75;;;3.90;99.90;;;;;;6033806;23;20249;-77
2022/04/02 12:42:42;;;;;;;10.55;9.65;;;3.80;99.90;;;;;;6026603;23;20230;-75
2022/04/02 12:45:11;;;;;;;9.73;8.93;;;3.90;99.90;;;;;;6025281;23;20192;-76
2022/04/02 12:47:38;;;;;;;10.50;9.60;;;4.00;99.90;;;;;;6026134;23;20192;-76
2022/04/02 12:50:13;;;;;;;9.25;8.55;;;4.00;99.90;;;;;;6026167;23;20179;-75
2022/04/02 12:52:48;;;;;;;10.43;9.52;;;3.90;99.90;;;;;;6025523;23;20213;-78
2022/04/02 12:55:21;;;;;;;11.23;10.23;;;3.90;99.90;;;;;;6021838;23;20192;-77
2022/04/02 12:58:07;;;;;;;14.50;13.02;;;3.80;99.90;;;;;;6024461;23;20189;-77
2022/04/02 13:00:36;;;;;;;10.85;9.80;;;3.70;99.90;;;;;;6021583;23;20548;-76
2022/04/02 13:03:05;;;;;;;10.00;9.10;;;3.80;99.90;;;;;;6024125;23;20220;-78
2022/04/02 13:05:46;;;;;;;10.40;9.52;;;3.70;99.90;;;;;;6024486;23;20195;-77
2022/04/02 13:08:26;;;;;;;10.35;9.55;;;3.70;99.90;;;;;;6025911;23;20193;-78
2022/04/02 13:10:57;;;;;;;10.10;9.25;;;3.80;99.90;;;;;;6025008;23;20218;-78